createdAt,value
2023-05-20T00:01:07.202Z,13.20
2023-05-20T00:06:03.579Z,13.20
2023-05-20T00:08:31.634Z,13.20
2023-05-20T00:10:59.662Z,13.10
2023-05-20T00:13:27.777Z,13.10
2023-05-20T00:15:57.174Z,13.10
2023-05-20T00:18:25.227Z,13.00
2023-05-20T00:20:54.375Z,13.00
2023-05-20T00:23:22.456Z,13.00
2023-05-20T00:25:50.823Z,12.90
2023-05-20T00:28:19.731Z,12.90
2023-05-20T00:30:47.801Z,12.90
2023-05-20T00:33:17.269Z,12.80
2023-05-20T00:35:45.326Z,12.80
2023-05-20T00:38:13.382Z,12.80
2023-05-20T00:40:41.387Z,12.80
2023-05-20T00:43:11.266Z,12.80
2023-05-20T00:45:39.732Z,12.70
2023-05-20T00:48:08.535Z,12.70
2023-05-20T00:50:38.106Z,12.70
2023-05-20T00:53:07.291Z,12.60
2023-05-20T00:55:36.379Z,12.60
2023-05-20T00:58:05.402Z,12.60
2023-05-20T01:00:33.478Z,12.50
2023-05-20T01:03:02.143Z,12.50
2023-05-20T01:05:30.556Z,12.50
2023-05-20T01:08:00.346Z,12.50
2023-05-20T01:10:31.359Z,12.40
2023-05-20T01:13:02.912Z,12.40
2023-05-20T01:15:32.342Z,12.30
2023-05-20T01:18:05.963Z,12.30
2023-05-20T01:20:34.957Z,12.30
2023-05-20T01:23:04.472Z,12.20
2023-05-20T01:25:32.704Z,12.20
2023-05-20T01:28:00.975Z,12.20
2023-05-20T01:30:35.413Z,12.20
2023-05-20T01:33:08.624Z,12.10
2023-05-20T01:35:37.405Z,12.10
2023-05-20T01:38:08.147Z,12.00
2023-05-20T01:40:36.856Z,12.10
2023-05-20T01:43:05.441Z,12.10
2023-05-20T01:45:34.268Z,12.10
2023-05-20T01:48:03.872Z,12.10
2023-05-20T01:50:32.048Z,12.10
2023-05-20T01:53:00.136Z,12.10
2023-05-20T01:55:29.640Z,12.10
2023-05-20T01:57:57.691Z,12.00
2023-05-20T02:00:26.775Z,12.00
2023-05-20T02:02:54.926Z,11.90
2023-05-20T02:05:23.043Z,11.90
2023-05-20T02:07:51.143Z,11.80
2023-05-20T02:10:21.792Z,11.80
2023-05-20T02:12:51.391Z,11.80
2023-05-20T02:15:19.812Z,11.80
2023-05-20T02:17:48.163Z,11.80
2023-05-20T02:20:16.507Z,11.70
2023-05-20T02:22:44.549Z,11.70
2023-05-20T02:25:12.716Z,11.70
2023-05-20T02:27:40.919Z,11.70
2023-05-20T02:30:11.483Z,11.70
2023-05-20T02:32:39.547Z,11.70
2023-05-20T02:35:08.051Z,11.60
2023-05-20T02:37:39.933Z,11.60
2023-05-20T02:40:10.211Z,11.60
2023-05-20T02:42:39.925Z,11.60
2023-05-20T02:45:10.937Z,11.50
2023-05-20T02:47:40.049Z,11.60
2023-05-20T02:50:08.914Z,11.60
2023-05-20T02:52:37.993Z,11.60
2023-05-20T02:55:07.626Z,11.60
2023-05-20T02:57:38.157Z,11.60
2023-05-20T03:00:12.045Z,11.50
2023-05-20T03:02:40.507Z,11.50
2023-05-20T03:05:09.712Z,11.50
2023-05-20T03:07:37.887Z,11.40
2023-05-20T03:10:09.356Z,11.50
2023-05-20T03:12:40.059Z,11.50
2023-05-20T03:15:09.357Z,11.40
2023-05-20T03:17:39.577Z,11.50
2023-05-20T03:20:10.412Z,11.40
2023-05-20T03:22:38.622Z,11.50
2023-05-20T03:25:09.585Z,11.40
2023-05-20T03:27:38.045Z,11.50
2023-05-20T03:30:08.249Z,11.50
2023-05-20T03:32:36.944Z,11.50
2023-05-20T03:35:08.495Z,11.50
2023-05-20T03:37:36.748Z,11.40
2023-05-20T03:40:06.154Z,11.50
2023-05-20T03:42:35.661Z,11.50
2023-05-20T03:45:04.807Z,11.40
2023-05-20T03:47:38.056Z,11.50
2023-05-20T03:50:09.841Z,11.40
2023-05-20T03:52:38.323Z,11.50
2023-05-20T03:55:07.832Z,11.50
2023-05-20T03:57:36.549Z,11.60
2023-05-20T04:00:10.316Z,11.60
2023-05-20T04:02:44.465Z,11.70
2023-05-20T04:05:17.259Z,11.70
2023-05-20T04:07:45.492Z,11.70
2023-05-20T04:10:14.807Z,11.80
2023-05-20T04:12:43.487Z,12.30
2023-05-20T04:15:12.762Z,13.50
2023-05-20T04:17:50.418Z,14.50
2023-05-20T04:20:20.377Z,14.90
2023-05-20T04:22:49.816Z,15.70
2023-05-20T04:25:18.208Z,15.80
2023-05-20T04:27:46.501Z,16.20
2023-05-20T04:30:16.757Z,16.40
2023-05-20T04:32:45.436Z,16.90
2023-05-20T04:35:14.558Z,17.10
2023-05-20T04:37:48.380Z,17.60
2023-05-20T04:40:19.031Z,17.80
2023-05-20T04:42:47.601Z,18.10
2023-05-20T04:45:16.747Z,18.20
2023-05-20T04:47:45.981Z,17.70
2023-05-20T04:50:15.255Z,17.80
2023-05-20T04:52:45.393Z,18.20
2023-05-20T04:55:15.866Z,18.20
2023-05-20T04:57:44.301Z,18.40
2023-05-20T05:00:13.932Z,19.30
2023-05-20T05:02:42.440Z,19.60
2023-05-20T05:05:10.813Z,19.40
2023-05-20T05:07:39.944Z,18.60
2023-05-20T05:10:09.150Z,18.50
2023-05-20T05:12:38.687Z,18.20
2023-05-20T05:15:08.063Z,19.10
2023-05-20T05:17:36.623Z,19.60
2023-05-20T05:20:05.294Z,19.80
2023-05-20T05:22:36.787Z,19.80
2023-05-20T05:25:05.101Z,20.00
2023-05-20T05:27:33.179Z,19.10
2023-05-20T05:30:03.780Z,19.60
2023-05-20T05:32:31.917Z,20.20
2023-05-20T05:35:00.244Z,20.80
2023-05-20T05:37:29.665Z,20.60
2023-05-20T05:39:57.875Z,20.50
2023-05-20T05:42:26.549Z,19.70
2023-05-20T05:44:55.739Z,19.40
2023-05-20T05:47:29.737Z,19.40
2023-05-20T05:49:57.910Z,18.50
2023-05-20T05:52:26.692Z,17.70
2023-05-20T05:54:55.472Z,18.10
2023-05-20T05:57:23.687Z,18.50
2023-05-20T05:59:52.013Z,17.70
2023-05-20T06:02:20.176Z,17.30
2023-05-20T06:04:50.541Z,17.40
2023-05-20T06:07:18.781Z,16.90
2023-05-20T06:09:46.926Z,17.40
2023-05-20T06:12:15.039Z,16.90
2023-05-20T06:14:43.097Z,15.80
2023-05-20T06:17:11.308Z,15.20
2023-05-20T06:19:39.477Z,15.10
2023-05-20T06:22:09.709Z,14.90
2023-05-20T06:24:37.981Z,15.00
2023-05-20T06:27:06.528Z,15.30
2023-05-20T06:29:35.097Z,15.20
2023-05-20T06:32:03.160Z,15.50
2023-05-20T06:34:31.367Z,15.80
2023-05-20T06:37:00.289Z,16.00
2023-05-20T06:39:29.692Z,15.90
2023-05-20T06:41:57.742Z,15.50
2023-05-20T06:44:32.496Z,15.20
2023-05-20T06:47:02.926Z,15.00
2023-05-20T06:49:32.515Z,14.70
2023-05-20T06:52:01.524Z,14.60
2023-05-20T06:54:34.107Z,14.60
2023-05-20T06:57:02.393Z,14.60
2023-05-20T06:59:30.557Z,14.60
2023-05-20T07:01:59.049Z,14.70
2023-05-20T07:04:27.324Z,14.80
2023-05-20T07:06:55.745Z,15.00
2023-05-20T07:09:23.956Z,14.90
2023-05-20T07:11:53.873Z,14.60
2023-05-20T07:14:22.825Z,14.60
2023-05-20T07:16:51.741Z,14.70
2023-05-20T07:19:20.177Z,14.60
2023-05-20T07:21:49.711Z,14.70
2023-05-20T07:24:37.049Z,14.70
2023-05-20T07:27:07.752Z,14.80
2023-05-20T07:29:37.100Z,14.50
2023-05-20T07:32:06.432Z,14.50
2023-05-20T07:34:36.082Z,14.60
2023-05-20T07:37:04.273Z,14.60
2023-05-20T07:39:32.983Z,14.50
2023-05-20T07:42:01.204Z,14.80
2023-05-20T07:44:30.751Z,14.80
2023-05-20T07:46:59.431Z,14.70
2023-05-20T07:49:27.516Z,14.70
2023-05-20T07:51:55.916Z,14.60
2023-05-20T07:54:24.447Z,14.80
2023-05-20T07:56:54.210Z,14.90
2023-05-20T07:59:22.532Z,14.80
2023-05-20T08:01:52.777Z,14.60
2023-05-20T08:04:22.195Z,14.90
2023-05-20T08:06:50.627Z,15.00
2023-05-20T08:09:25.301Z,15.10
2023-05-20T08:11:56.690Z,15.00
2023-05-20T08:14:24.764Z,15.00
2023-05-20T08:16:55.970Z,15.10
2023-05-20T08:19:24.632Z,15.10
2023-05-20T08:21:53.373Z,15.10
2023-05-20T08:24:21.837Z,14.90
2023-05-20T08:26:50.212Z,14.90
2023-05-20T08:29:19.933Z,15.10
2023-05-20T08:31:47.961Z,15.00
2023-05-20T08:34:18.884Z,14.70
2023-05-20T08:36:47.390Z,14.70
2023-05-20T08:39:16.482Z,15.00
2023-05-20T08:41:48.392Z,15.00
2023-05-20T08:44:18.860Z,14.90
2023-05-20T08:46:47.431Z,15.10
2023-05-20T08:49:15.590Z,15.20
2023-05-20T08:51:46.221Z,15.00
2023-05-20T08:54:16.760Z,15.20
2023-05-20T08:56:45.882Z,14.90
2023-05-20T08:59:13.937Z,15.00
2023-05-20T09:01:44.053Z,15.20
2023-05-20T09:04:12.574Z,15.10
2023-05-20T09:06:46.082Z,15.20
2023-05-20T09:09:14.299Z,15.30
2023-05-20T09:11:43.218Z,15.20
2023-05-20T09:14:11.288Z,15.20
2023-05-20T09:16:41.582Z,15.30
2023-05-20T09:19:11.190Z,15.40
2023-05-20T09:21:39.883Z,15.60
2023-05-20T09:24:09.430Z,15.40
2023-05-20T09:26:37.804Z,15.20
2023-05-20T09:29:06.116Z,15.40
2023-05-20T09:31:35.533Z,15.60
2023-05-20T09:34:03.892Z,15.60
2023-05-20T09:36:34.919Z,15.60
2023-05-20T09:39:05.180Z,15.80
2023-05-20T09:41:39.398Z,16.10
2023-05-20T09:44:08.977Z,16.10
2023-05-20T09:46:38.379Z,16.10
2023-05-20T09:49:07.829Z,16.00
2023-05-20T09:51:36.897Z,16.40
2023-05-20T09:54:08.312Z,16.40
2023-05-20T09:56:38.189Z,16.40
2023-05-20T09:59:06.745Z,16.40
2023-05-20T10:01:34.873Z,16.50
2023-05-20T10:04:05.332Z,16.70
2023-05-20T10:06:57.244Z,16.60
2023-05-20T10:09:43.993Z,16.80
2023-05-20T10:12:26.463Z,16.90
2023-05-20T10:15:04.982Z,17.30
2023-05-20T10:17:40.939Z,17.50
2023-05-20T10:20:11.796Z,17.40
2023-05-20T10:22:41.012Z,17.60
2023-05-20T10:25:12.890Z,17.40
2023-05-20T10:27:46.380Z,17.50
2023-05-20T10:30:18.525Z,17.60
2023-05-20T10:32:56.695Z,17.80
2023-05-20T10:35:27.111Z,17.90
2023-05-20T10:37:56.564Z,18.00
2023-05-20T10:40:26.518Z,18.40
2023-05-20T10:43:01.037Z,18.50
2023-05-20T10:45:30.053Z,18.60
2023-05-20T10:47:59.584Z,18.50
2023-05-20T10:50:29.136Z,18.40
2023-05-20T10:53:04.402Z,18.60
2023-05-20T10:55:38.476Z,18.70
2023-05-20T10:58:08.100Z,19.00
2023-05-20T11:00:37.019Z,19.00
2023-05-20T11:03:06.724Z,18.90
2023-05-20T11:05:35.510Z,19.00
2023-05-20T11:08:10.733Z,19.30
2023-05-20T11:10:48.477Z,19.20
2023-05-20T11:13:18.973Z,19.10
2023-05-20T11:15:47.204Z,19.10
2023-05-20T11:18:17.766Z,19.30
2023-05-20T11:20:47.925Z,19.40
2023-05-20T11:23:16.788Z,19.60
2023-05-20T11:25:44.870Z,19.70
2023-05-20T11:28:14.790Z,19.50
2023-05-20T11:30:44.978Z,19.30
2023-05-20T11:33:14.486Z,19.50
2023-05-20T11:35:46.585Z,19.40
2023-05-20T11:38:14.755Z,19.30
2023-05-20T11:40:51.095Z,19.50
2023-05-20T11:43:20.918Z,19.60
2023-05-20T11:45:56.108Z,19.30
2023-05-20T11:48:25.679Z,19.40
2023-05-20T11:50:55.366Z,19.20
2023-05-20T11:53:24.728Z,19.10
2023-05-20T11:55:55.070Z,19.10
2023-05-20T11:58:24.324Z,19.20
2023-05-20T12:00:59.529Z,19.30
2023-05-20T12:03:33.888Z,19.50
2023-05-20T12:06:02.517Z,19.40
2023-05-20T12:08:30.648Z,19.60
2023-05-20T12:10:58.669Z,19.80
2023-05-20T12:13:26.762Z,19.70
2023-05-20T12:15:56.207Z,20.00
2023-05-20T12:18:24.327Z,19.60
2023-05-20T12:20:52.324Z,19.50
2023-05-20T12:23:21.302Z,19.40
2023-05-20T12:25:49.909Z,19.50
2023-05-20T12:28:18.606Z,19.20
2023-05-20T12:30:46.663Z,19.50
2023-05-20T12:33:16.300Z,19.50
2023-05-20T12:35:46.010Z,19.50
2023-05-20T12:38:14.081Z,19.50
2023-05-20T12:40:42.151Z,19.50
2023-05-20T12:43:10.424Z,19.50
2023-05-20T12:45:38.513Z,19.50
2023-05-20T12:48:07.822Z,19.50
2023-05-20T12:50:37.520Z,19.20
2023-05-20T12:53:05.781Z,19.20
2023-05-20T12:55:33.858Z,19.10
2023-05-20T12:58:01.876Z,19.20
2023-05-20T13:00:29.906Z,19.30
2023-05-20T13:02:58.186Z,19.40
2023-05-20T13:05:26.253Z,19.20
2023-05-20T13:07:55.731Z,19.20
2023-05-20T13:10:23.824Z,19.40
2023-05-20T13:12:51.867Z,19.50
2023-05-20T13:15:20.122Z,19.40
2023-05-20T13:17:48.232Z,19.10
2023-05-20T13:20:19.032Z,19.20
2023-05-20T13:22:47.955Z,19.20
2023-05-20T13:25:17.442Z,19.20
2023-05-20T13:27:45.519Z,19.30
2023-05-20T13:30:14.024Z,19.30
2023-05-20T13:32:42.065Z,19.20
2023-05-20T13:35:10.418Z,19.00
2023-05-20T13:37:38.473Z,18.90
2023-05-20T13:40:08.512Z,18.80
2023-05-20T13:42:38.521Z,19.00
2023-05-20T13:45:07.520Z,18.90
2023-05-20T13:47:35.597Z,18.80
2023-05-20T13:50:04.012Z,18.90
2023-05-20T13:52:32.031Z,19.40
2023-05-20T13:55:00.037Z,20.20
2023-05-20T13:57:28.160Z,21.40
2023-05-20T13:59:57.505Z,21.50
2023-05-20T14:02:25.631Z,21.00
2023-05-20T14:04:53.749Z,21.50
2023-05-20T14:07:21.867Z,20.60
2023-05-20T14:09:49.899Z,20.30
2023-05-20T14:12:17.970Z,20.70
2023-05-20T14:14:46.089Z,20.50
2023-05-20T14:17:15.533Z,20.40
2023-05-20T14:19:43.602Z,20.80
2023-05-20T14:22:14.617Z,20.30
2023-05-20T14:24:42.624Z,20.20
2023-05-20T14:27:11.451Z,19.90
2023-05-20T14:29:39.577Z,19.90
2023-05-20T14:32:08.970Z,19.80
2023-05-20T14:34:38.364Z,19.60
2023-05-20T14:37:09.788Z,19.50
2023-05-20T14:39:37.862Z,19.60
2023-05-20T14:42:06.980Z,19.60
2023-05-20T14:44:35.387Z,19.20
2023-05-20T14:47:04.202Z,18.70
2023-05-20T14:49:32.675Z,18.60
2023-05-20T14:52:02.070Z,18.60
2023-05-20T14:54:30.129Z,18.50
2023-05-20T14:56:58.211Z,18.60
2023-05-20T14:59:26.283Z,18.40
2023-05-20T15:01:54.343Z,18.50
2023-05-20T15:04:22.433Z,18.70
2023-05-20T15:06:50.879Z,18.70
2023-05-20T15:09:20.653Z,18.60
2023-05-20T15:11:48.825Z,18.50
2023-05-20T15:14:16.869Z,18.50
2023-05-20T15:16:45.029Z,18.40
2023-05-20T15:19:14.272Z,18.40
2023-05-20T15:21:42.641Z,18.40
2023-05-20T15:24:10.838Z,18.40
2023-05-20T15:26:41.309Z,18.20
2023-05-20T15:29:09.376Z,18.10
2023-05-20T15:31:37.735Z,18.10
2023-05-20T15:34:05.920Z,18.00
2023-05-20T15:36:34.085Z,18.00
2023-05-20T15:39:02.132Z,17.90
2023-05-20T15:41:31.977Z,17.90
2023-05-20T15:44:02.219Z,17.90
2023-05-20T15:46:30.501Z,17.90
2023-05-20T15:48:59.057Z,17.80
2023-05-20T15:51:27.257Z,17.80
2023-05-20T15:53:55.341Z,17.70
2023-05-20T15:56:23.406Z,17.80
2023-05-20T15:58:51.572Z,17.70
2023-05-20T16:01:22.051Z,17.70
2023-05-20T16:03:50.313Z,17.60
2023-05-20T16:06:18.569Z,17.60
2023-05-20T16:08:46.622Z,17.70
2023-05-20T16:11:14.728Z,17.60
2023-05-20T16:13:42.800Z,17.60
2023-05-20T16:16:13.251Z,17.60
2023-05-20T16:18:42.730Z,17.60
2023-05-20T16:21:10.812Z,17.50
2023-05-20T16:23:38.900Z,17.60
2023-05-20T16:26:06.939Z,17.50
2023-05-20T16:28:35.009Z,17.60
2023-05-20T16:31:03.069Z,17.60
2023-05-20T16:33:31.298Z,17.60
2023-05-20T16:36:01.272Z,17.60
2023-05-20T16:38:29.332Z,17.50
2023-05-20T16:40:57.349Z,17.50
2023-05-20T16:43:25.615Z,17.50
2023-05-20T16:45:54.362Z,17.50
2023-05-20T16:48:22.595Z,17.50
2023-05-20T16:50:50.925Z,17.50
2023-05-20T16:53:20.638Z,17.50
2023-05-20T16:55:48.717Z,17.50
2023-05-20T16:58:16.793Z,17.40
2023-05-20T17:00:44.992Z,17.40
2023-05-20T17:03:14.219Z,17.40
2023-05-20T17:05:43.455Z,17.30
2023-05-20T17:08:11.506Z,17.30
2023-05-20T17:10:41.057Z,17.40
2023-05-20T17:13:09.113Z,17.30
2023-05-20T17:15:37.794Z,17.30
2023-05-20T17:18:06.036Z,17.30
2023-05-20T17:20:34.392Z,17.20
2023-05-20T17:23:03.228Z,17.20
2023-05-20T17:25:31.285Z,17.20
2023-05-20T17:28:01.061Z,17.10
2023-05-20T17:30:29.182Z,17.10
2023-05-20T17:32:57.467Z,17.10
2023-05-20T17:35:26.543Z,17.20
2023-05-20T17:37:54.935Z,17.20
2023-05-20T17:40:23.233Z,17.20
2023-05-20T17:42:51.506Z,17.20
2023-05-20T17:45:20.961Z,17.10
2023-05-20T17:47:49.501Z,17.10
2023-05-20T17:50:18.119Z,17.10
2023-05-20T17:52:46.578Z,17.10
2023-05-20T17:55:14.714Z,17.10
2023-05-20T17:57:42.778Z,17.10
2023-05-20T18:00:12.995Z,17.10
2023-05-20T18:02:48.172Z,17.00
2023-05-20T18:05:17.169Z,17.00
2023-05-20T18:07:45.474Z,17.00
2023-05-20T18:10:14.172Z,17.00
2023-05-20T18:12:43.046Z,17.00
2023-05-20T18:15:13.800Z,16.90
2023-05-20T18:17:43.383Z,16.90
2023-05-20T18:20:12.958Z,16.90
2023-05-20T18:22:45.133Z,16.80
2023-05-20T18:25:13.236Z,16.80
2023-05-20T18:27:41.656Z,16.80
2023-05-20T18:30:11.077Z,16.70
2023-05-20T18:32:39.463Z,16.70
2023-05-20T18:35:10.605Z,16.70
2023-05-20T18:37:38.738Z,16.60
2023-05-20T18:40:08.145Z,16.60
2023-05-20T18:42:36.348Z,16.60
2023-05-20T18:45:04.813Z,16.60
2023-05-20T18:47:32.992Z,16.50
2023-05-20T18:50:01.149Z,16.40
2023-05-20T18:52:30.743Z,16.40
2023-05-20T18:54:58.889Z,16.40
2023-05-20T18:57:27.016Z,16.40
2023-05-20T18:59:55.133Z,16.30
2023-05-20T19:02:24.651Z,16.30
2023-05-20T19:04:52.704Z,16.30
2023-05-20T19:07:20.880Z,16.30
2023-05-20T19:09:51.882Z,16.30
2023-05-20T19:12:19.932Z,16.30
2023-05-20T19:14:47.990Z,16.20
2023-05-20T19:17:17.924Z,16.20
2023-05-20T19:19:47.125Z,16.20
2023-05-20T19:22:15.210Z,16.20
2023-05-20T19:24:43.380Z,16.20
2023-05-20T19:27:13.193Z,16.20
2023-05-20T19:29:41.205Z,16.20
2023-05-20T19:32:09.605Z,16.20
2023-05-20T19:34:37.638Z,16.20
2023-05-20T19:37:06.037Z,16.10
2023-05-20T19:39:34.206Z,16.10
2023-05-20T19:42:06.498Z,16.10
2023-05-20T19:44:36.046Z,16.10
2023-05-20T19:47:05.501Z,16.10
2023-05-20T19:49:33.679Z,16.00
2023-05-20T19:52:01.781Z,16.00
2023-05-20T19:54:29.794Z,16.00
2023-05-20T19:56:57.866Z,16.00
2023-05-20T19:59:25.880Z,16.00
2023-05-20T20:01:55.481Z,16.00
2023-05-20T20:04:23.550Z,16.00
2023-05-20T20:06:51.548Z,15.90
2023-05-20T20:09:19.711Z,15.90
2023-05-20T20:11:47.784Z,15.90
2023-05-20T20:14:15.808Z,15.90
2023-05-20T20:16:48.644Z,15.90
2023-05-20T20:19:22.655Z,15.90
2023-05-20T20:21:52.984Z,15.80
2023-05-20T20:24:21.275Z,15.80
2023-05-20T20:26:49.285Z,15.80
2023-05-20T20:29:17.341Z,15.80
2023-05-20T20:31:45.403Z,15.80
2023-05-20T20:34:13.649Z,15.70
2023-05-20T20:36:44.843Z,15.80
2023-05-20T20:39:18.785Z,15.80
2023-05-20T20:41:47.269Z,15.70
2023-05-20T20:44:18.917Z,15.70
2023-05-20T20:46:50.630Z,15.70
2023-05-20T20:49:18.971Z,15.60
2023-05-20T20:51:49.633Z,15.60
2023-05-20T20:54:18.203Z,15.70
2023-05-20T20:56:47.131Z,15.60
2023-05-20T20:59:15.658Z,15.60
2023-05-20T21:01:44.741Z,15.60
2023-05-20T21:04:13.790Z,15.60
2023-05-20T21:06:45.823Z,15.60
2023-05-20T21:09:15.266Z,15.60
2023-05-20T21:11:45.135Z,15.50
2023-05-20T21:14:13.956Z,15.50
2023-05-20T21:16:43.030Z,15.50
2023-05-20T21:19:11.479Z,15.40
2023-05-20T21:21:39.788Z,15.40
2023-05-20T21:24:08.139Z,15.40
2023-05-20T21:26:37.612Z,15.40
2023-05-20T21:29:05.999Z,15.30
2023-05-20T21:31:34.068Z,15.30
2023-05-20T21:34:02.171Z,15.30
2023-05-20T21:36:30.514Z,15.30
2023-05-20T21:38:58.600Z,15.20
2023-05-20T21:41:27.312Z,15.20
2023-05-20T21:43:56.690Z,15.10
2023-05-20T21:46:24.800Z,15.10
2023-05-20T21:48:52.907Z,15.00
2023-05-20T21:51:20.917Z,15.00
2023-05-20T21:53:48.985Z,15.00
2023-05-20T21:56:17.031Z,15.00
2023-05-20T21:58:45.023Z,15.00
2023-05-20T22:01:14.547Z,15.00
2023-05-20T22:03:47.941Z,14.90
2023-05-20T22:06:17.923Z,14.90
2023-05-20T22:08:46.030Z,14.90
2023-05-20T22:11:15.242Z,14.90
2023-05-20T22:13:44.272Z,14.80
2023-05-20T22:16:12.359Z,14.80
2023-05-20T22:18:42.641Z,14.80
2023-05-20T22:21:11.087Z,14.70
2023-05-20T22:23:39.145Z,14.70
2023-05-20T22:26:08.587Z,14.60
2023-05-20T22:28:36.651Z,14.60
2023-05-20T22:31:04.888Z,14.60
2023-05-20T22:33:32.889Z,14.60
2023-05-20T22:36:02.230Z,14.60
2023-05-20T22:38:30.753Z,14.50
2023-05-20T22:40:58.802Z,14.50
2023-05-20T22:43:26.869Z,14.50
2023-05-20T22:45:54.905Z,14.50
2023-05-20T22:48:23.379Z,14.40
2023-05-20T22:50:51.696Z,14.40
2023-05-20T22:53:21.210Z,14.40
2023-05-20T22:55:49.314Z,14.40
2023-05-20T22:58:17.468Z,14.40
2023-05-20T23:00:45.795Z,14.40
2023-05-20T23:03:13.909Z,14.30
2023-05-20T23:05:41.970Z,14.30
2023-05-20T23:08:09.970Z,14.20
2023-05-20T23:10:39.518Z,14.20
2023-05-20T23:13:07.575Z,14.10
2023-05-20T23:15:35.822Z,14.20
2023-05-20T23:18:04.074Z,14.20
2023-05-20T23:20:32.130Z,14.20
2023-05-20T23:23:05.618Z,14.20
2023-05-20T23:25:40.352Z,14.20
2023-05-20T23:28:08.418Z,14.20
2023-05-20T23:30:36.852Z,14.20
2023-05-20T23:33:07.088Z,14.20
2023-05-20T23:35:35.361Z,14.20
2023-05-20T23:38:03.621Z,14.20
2023-05-20T23:40:31.682Z,14.20
2023-05-20T23:43:01.206Z,14.10
2023-05-20T23:45:29.587Z,14.00
2023-05-20T23:47:57.718Z,14.10
2023-05-20T23:50:27.705Z,14.00
2023-05-20T23:52:55.762Z,14.00
2023-05-20T23:55:23.895Z,14.00
2023-05-20T23:57:52.091Z,14.00
